createdAt,value
2023-02-18T00:00:08.222Z,7.96
2023-02-18T00:10:14.707Z,8.00
2023-02-18T00:20:18.938Z,8.26
2023-02-18T00:30:21.764Z,8.18
2023-02-18T00:40:25.811Z,8.33
2023-02-18T00:50:28.752Z,8.34
2023-02-18T01:00:32.702Z,8.46
2023-02-18T01:10:36.549Z,8.50
2023-02-18T01:20:43.539Z,8.24
2023-02-18T01:30:46.146Z,8.07
2023-02-18T01:40:53.052Z,7.89
2023-02-18T01:51:00.050Z,7.96
2023-02-18T02:01:04.225Z,8.15
2023-02-18T02:11:18.773Z,8.21
2023-02-18T02:21:57.282Z,8.39
2023-02-18T02:32:19.352Z,8.38
2023-02-18T02:42:30.765Z,8.61
2023-02-18T02:52:36.198Z,8.72
2023-02-18T03:02:52.352Z,8.77
2023-02-18T03:13:05.668Z,8.95
2023-02-18T03:23:14.345Z,8.86
2023-02-18T03:33:19.655Z,8.89
2023-02-18T03:43:24.589Z,8.90
2023-02-18T03:53:27.188Z,8.88
2023-02-18T04:03:31.173Z,8.94
2023-02-18T04:13:33.793Z,8.91
2023-02-18T04:23:37.921Z,8.96
2023-02-18T04:33:40.576Z,8.78
2023-02-18T04:43:44.531Z,8.50
2023-02-18T04:53:47.170Z,8.63
2023-02-18T05:03:51.269Z,8.51
2023-02-18T05:13:53.940Z,8.43
2023-02-18T05:23:58.027Z,8.45
2023-02-18T05:34:00.664Z,8.62
2023-02-18T05:44:22.460Z,8.77
2023-02-18T05:54:26.571Z,8.85
2023-02-18T06:04:30.715Z,9.00
2023-02-18T06:14:33.446Z,9.16
2023-02-18T06:24:37.656Z,9.20
2023-02-18T06:34:40.274Z,9.24
2023-02-18T06:44:44.406Z,9.27
2023-02-18T06:54:47.045Z,9.29
2023-02-18T07:04:51.179Z,9.36
2023-02-18T07:14:53.838Z,9.55
2023-02-18T07:24:58.042Z,9.71
2023-02-18T07:35:00.700Z,9.75
2023-02-18T07:45:04.948Z,9.81
2023-02-18T07:55:08.525Z,9.97
2023-02-18T08:05:13.911Z,10.01
2023-02-18T08:15:16.654Z,10.14
2023-02-18T08:25:29.376Z,10.26
2023-02-18T08:35:32.597Z,10.39
2023-02-18T08:45:38.128Z,10.43
2023-02-18T08:55:42.045Z,10.43
2023-02-18T09:05:45.995Z,10.38
2023-02-18T09:15:57.647Z,10.28
2023-02-18T09:26:01.658Z,10.35
2023-02-18T09:36:04.926Z,10.25
2023-02-18T09:46:18.430Z,10.25
2023-02-18T09:56:28.795Z,10.33
2023-02-18T10:06:33.649Z,10.20
2023-02-18T10:16:36.320Z,10.18
2023-02-18T10:26:40.469Z,10.20
2023-02-18T10:36:46.895Z,10.28
2023-02-18T10:46:59.824Z,10.19
2023-02-18T10:57:04.718Z,10.18
2023-02-18T11:07:14.826Z,10.33
2023-02-18T11:17:21.275Z,10.42
2023-02-18T11:27:29.422Z,10.57
2023-02-18T11:37:34.043Z,10.77
2023-02-18T11:47:38.964Z,10.98
2023-02-18T11:57:45.206Z,11.23
2023-02-18T12:07:52.190Z,11.38
2023-02-18T12:18:18.631Z,11.52
2023-02-18T12:28:38.975Z,11.77
2023-02-18T12:38:55.596Z,11.98
2023-02-18T12:49:15.676Z,12.13
2023-02-18T12:59:36.354Z,12.08
2023-02-18T13:09:53.837Z,12.13
2023-02-18T13:20:00.594Z,12.28
2023-02-18T13:30:19.772Z,12.32
2023-02-18T13:40:27.613Z,12.32
2023-02-18T13:50:43.003Z,12.45
2023-02-18T14:00:51.096Z,12.30
2023-02-18T14:11:41.624Z,12.32
2023-02-18T14:21:45.569Z,12.46
2023-02-18T14:31:55.236Z,12.16
2023-02-18T14:42:04.390Z,12.33
2023-02-18T14:52:13.435Z,11.99
2023-02-18T15:02:23.080Z,11.77
2023-02-18T15:12:26.213Z,11.32
2023-02-18T15:22:34.938Z,10.99
2023-02-18T15:32:37.598Z,10.20
2023-02-18T15:42:41.629Z,10.25
2023-02-18T15:52:44.360Z,10.27
2023-02-18T16:02:57.187Z,10.23
2023-02-18T16:13:01.269Z,10.34
2023-02-18T16:23:13.513Z,10.46
2023-02-18T16:33:16.583Z,10.25
2023-02-18T16:43:22.014Z,10.16
2023-02-18T16:53:24.654Z,9.93
2023-02-18T17:03:28.815Z,9.74
2023-02-18T17:13:31.749Z,9.82
2023-02-18T17:23:35.732Z,9.98
2023-02-18T17:33:39.302Z,10.18
2023-02-18T17:43:43.517Z,9.56
2023-02-18T17:53:46.144Z,9.36
2023-02-18T18:03:50.210Z,9.09
2023-02-18T18:13:53.773Z,9.02
2023-02-18T18:23:57.716Z,9.08
2023-02-18T18:34:00.379Z,9.26
2023-02-18T18:44:05.694Z,9.30
2023-02-18T18:54:08.310Z,9.14
2023-02-18T19:04:12.367Z,9.27
2023-02-18T19:14:15.409Z,9.24
2023-02-18T19:24:19.383Z,9.20
2023-02-18T19:34:22.740Z,9.40
2023-02-18T19:44:26.800Z,9.18
2023-02-18T19:54:29.432Z,8.95
2023-02-18T20:04:33.834Z,9.07
2023-02-18T20:14:37.173Z,9.22
2023-02-18T20:24:41.960Z,9.14
2023-02-18T20:34:44.690Z,9.20
2023-02-18T20:44:49.206Z,9.11
2023-02-18T20:54:51.857Z,9.09
2023-02-18T21:04:55.845Z,9.23
2023-02-18T21:14:58.474Z,9.27
2023-02-18T21:25:02.387Z,9.32
2023-02-18T21:35:05.204Z,9.27
2023-02-18T21:45:09.967Z,9.31
2023-02-18T21:55:12.962Z,9.26
2023-02-18T22:05:17.062Z,9.25
2023-02-18T22:15:19.680Z,9.16
2023-02-18T22:25:23.709Z,9.16
2023-02-18T22:35:26.318Z,9.17
2023-02-18T22:45:30.336Z,9.19
2023-02-18T22:55:33.154Z,9.17
2023-02-18T23:05:37.152Z,9.11
2023-02-18T23:15:39.773Z,9.17
2023-02-18T23:25:43.885Z,9.16
2023-02-18T23:35:46.501Z,9.01
2023-02-18T23:45:50.484Z,8.92
2023-02-18T23:56:03.449Z,8.96
